Time;durP1;ratioP1;P1;durP2;ratioP2;P2;SDS_P1;SDS_P2;PMS_P1;PMS_P2;Temp;Humidity;BMP_temperature;BMP_pressure;BME280_temperature;BME280_humidity;BME280_pressure;Samples;Min_cycle;Max_cycle;Signal;HPM_P1;HPM_P2
2022/04/29 00:00:14;;;;;;;4.23;3.83;;;10.80;61.40;10.80;97433.00;;;;5063209;28;20287;-82
2022/04/29 00:02:41;;;;;;;4.27;3.97;;;10.80;61.70;10.80;97439.00;;;;5061471;28;20204;-84
2022/04/29 00:05:10;;;;;;;5.43;3.87;;;10.70;61.50;10.80;97427.00;;;;5065297;28;20208;-82
2022/04/29 00:07:39;;;;;;;4.23;3.87;;;10.70;61.70;10.80;97420.00;;;;5059601;28;20197;-84
2022/04/29 00:10:12;;;;;;;5.83;4.27;;;10.70;61.70;10.70;97425.00;;;;5065970;28;20193;-83
2022/04/29 00:12:39;;;;;;;4.23;3.93;;;10.60;62.10;10.70;97423.00;;;;5061431;28;20810;-82
2022/04/29 00:15:09;;;;;;;4.13;3.73;;;10.60;62.30;10.70;97417.00;;;;5064940;28;20219;-82
2022/04/29 00:17:36;;;;;;;4.20;3.90;;;10.60;62.40;10.60;97423.00;;;;5063620;28;20282;-83
2022/04/29 00:20:05;;;;;;;4.40;3.70;;;10.60;62.60;10.60;97407.00;;;;5061890;28;20584;-83
2022/04/29 00:22:32;;;;;;;3.90;3.60;;;10.50;62.60;10.50;97412.00;;;;5062176;28;20192;-83
2022/04/29 00:24:59;;;;;;;4.37;3.97;;;10.50;62.60;10.50;97411.00;;;;5065750;28;20223;-83
2022/04/29 00:27:26;;;;;;;4.10;3.80;;;10.50;62.50;10.40;97415.00;;;;5057316;28;20192;-83
2022/04/29 00:29:54;;;;;;;3.97;3.67;;;10.40;62.50;10.40;97416.00;;;;5060877;28;20680;-83
2022/04/29 00:32:23;;;;;;;3.83;3.53;;;10.40;62.40;10.40;97412.00;;;;5055635;28;20216;-83
2022/04/29 00:34:50;;;;;;;4.30;4.00;;;10.40;62.50;10.40;97412.00;;;;5056658;28;20221;-83
2022/04/29 00:37:17;;;;;;;3.67;3.37;;;10.30;62.50;10.40;97411.00;;;;5054480;28;20193;-83
2022/04/29 00:39:44;;;;;;;4.53;3.77;;;10.40;62.60;10.40;97407.00;;;;5070401;28;20189;-83
2022/04/29 00:42:12;;;;;;;3.50;3.20;;;10.30;62.40;10.30;97401.00;;;;5065521;28;20675;-83
2022/04/29 00:44:40;;;;;;;4.23;3.87;;;10.30;62.50;10.30;97402.00;;;;5067285;28;20203;-82
2022/04/29 00:47:10;;;;;;;6.03;4.03;;;10.30;62.50;10.30;97393.00;;;;5070776;28;20204;-82
2022/04/29 00:49:39;;;;;;;3.93;3.63;;;10.20;62.60;10.30;97394.00;;;;5068747;28;20192;-83
2022/04/29 00:52:11;;;;;;;3.83;3.53;;;10.20;62.70;10.20;97401.00;;;;5062006;28;20689;-82
2022/04/29 00:54:40;;;;;;;4.53;4.07;;;10.20;63.70;10.20;97393.00;;;;5069213;28;20566;-83
2022/04/29 00:57:15;;;;;;;4.50;4.10;;;10.20;63.20;10.10;97384.00;;;;5072813;28;20666;-83
2022/04/29 00:59:50;;;;;;;4.20;3.87;;;10.10;63.40;10.10;97389.00;;;;5063373;28;20648;-82
2022/04/29 01:02:20;;;;;;;8.00;3.93;;;10.00;63.50;10.10;97388.00;;;;5061384;28;20209;-83
2022/04/29 01:04:59;;;;;;;4.27;3.87;;;10.00;63.40;10.00;97377.00;;;;5072100;28;20218;-83
2022/04/29 01:07:28;;;;;;;4.30;4.00;;;10.00;63.50;10.00;97381.00;;;;5068364;28;20665;-83
2022/04/29 01:09:55;;;;;;;4.70;4.30;;;10.00;63.50;10.00;97384.00;;;;5067542;28;20188;-83
2022/04/29 01:12:25;;;;;;;4.60;4.27;;;10.00;63.60;10.00;97373.00;;;;5063672;28;20220;-82
2022/04/29 01:14:54;;;;;;;4.87;4.47;;;9.90;63.80;9.90;97372.00;;;;5062486;28;20708;-83
2022/04/29 01:17:21;;;;;;;4.60;4.27;;;9.90;64.00;9.90;97375.00;;;;5069499;28;20545;-83
2022/04/29 01:19:49;;;;;;;4.57;4.27;;;9.90;64.00;9.90;97363.00;;;;5066031;28;20196;-83
2022/04/29 01:22:18;;;;;;;4.20;3.80;;;9.90;64.10;9.90;97362.00;;;;5070826;28;20196;-81
2022/04/29 01:24:48;;;;;;;4.67;4.27;;;9.80;64.20;9.90;97358.00;;;;5070527;28;21200;-82
2022/04/29 01:27:15;;;;;;;4.57;4.17;;;9.80;64.30;9.80;97362.00;;;;5073178;28;20200;-83
2022/04/29 01:29:46;;;;;;;4.27;3.97;;;9.80;64.20;9.80;97361.00;;;;5065891;28;20200;-82
2022/04/29 01:32:13;;;;;;;4.20;3.80;;;9.80;64.30;9.80;97359.00;;;;5069537;28;20220;-82
2022/04/29 01:34:40;;;;;;;4.53;4.13;;;9.80;65.10;9.80;97358.00;;;;5060647;28;20204;-82
2022/04/29 01:37:07;;;;;;;4.30;3.90;;;9.80;64.40;9.80;97366.00;;;;5060362;28;20192;-82
2022/04/29 01:39:36;;;;;;;4.70;4.23;;;9.80;64.50;9.80;97366.00;;;;5065654;28;20191;-83
2022/04/29 01:42:03;;;;;;;3.87;3.57;;;9.80;64.40;9.80;97370.00;;;;5065674;28;20196;-83
2022/04/29 01:44:30;;;;;;;4.20;3.90;;;9.80;64.30;9.80;97365.00;;;;5064093;28;20199;-82
2022/04/29 01:46:57;;;;;;;4.60;4.20;;;9.70;64.20;9.80;97359.00;;;;5069686;28;20203;-82
2022/04/29 01:49:24;;;;;;;4.13;3.77;;;9.70;64.10;9.80;97358.00;;;;5070596;28;20199;-82
2022/04/29 01:51:53;;;;;;;4.03;3.73;;;9.70;64.10;9.70;97364.00;;;;5068561;28;20673;-82
2022/04/29 01:54:20;;;;;;;4.40;4.00;;;9.70;64.10;9.70;97362.00;;;;5063331;28;20200;-82
2022/04/29 01:56:52;;;;;;;3.97;3.57;;;9.70;64.30;9.70;97360.00;;;;5061953;28;20211;-82
2022/04/29 01:59:20;;;;;;;4.37;4.07;;;9.60;63.60;9.70;97357.00;;;;5067205;28;20235;-82
2022/04/29 02:01:48;;;;;;;4.60;3.90;;;9.60;64.40;9.70;97350.00;;;;5064160;28;20201;-82
2022/04/29 02:04:15;;;;;;;3.77;3.47;;;9.60;64.60;9.60;97351.00;;;;5059946;28;20197;-82
2022/04/29 02:06:43;;;;;;;4.23;3.93;;;9.60;64.60;9.60;97342.00;;;;5071061;28;20223;-82
2022/04/29 02:09:10;;;;;;;4.53;4.23;;;9.50;64.50;9.60;97351.00;;;;5059072;28;20196;-82
2022/04/29 02:11:37;;;;;;;4.60;4.30;;;9.50;64.60;9.60;97352.00;;;;5070643;28;20572;-83
2022/04/29 02:14:06;;;;;;;5.27;4.70;;;9.50;64.80;9.50;97345.00;;;;5073558;28;20681;-83
2022/04/29 02:16:33;;;;;;;5.07;4.53;;;9.50;65.00;9.50;97334.00;;;;5067318;28;20274;-83
2022/04/29 02:19:00;;;;;;;4.60;4.30;;;9.50;65.00;9.50;97336.00;;;;5059678;28;20214;-82
2022/04/29 02:21:27;;;;;;;4.90;4.37;;;9.40;65.00;9.50;97335.00;;;;5064463;28;20193;-83
2022/04/29 02:23:54;;;;;;;5.43;4.63;;;9.40;65.00;9.40;97338.00;;;;5073883;28;20196;-82
2022/04/29 02:26:21;;;;;;;4.60;4.20;;;9.40;64.90;9.40;97337.00;;;;5068413;28;20219;-83
2022/04/29 02:28:48;;;;;;;4.53;4.13;;;9.40;64.90;9.40;97328.00;;;;5068993;28;20728;-82
2022/04/29 02:31:16;;;;;;;4.93;4.53;;;9.30;64.90;9.30;97331.00;;;;5072461;28;20620;-82
2022/04/29 02:33:43;;;;;;;5.30;4.80;;;9.30;65.00;9.30;97329.00;;;;5064572;28;20227;-83
2022/04/29 02:36:10;;;;;;;4.77;4.33;;;9.30;65.20;9.30;97330.00;;;;5067489;28;20212;-83
2022/04/29 02:38:38;;;;;;;5.50;4.83;;;9.30;65.20;9.30;97330.00;;;;5064196;28;20196;-82
2022/04/29 02:41:05;;;;;;;5.10;4.70;;;9.20;65.20;9.20;97331.00;;;;5070254;28;20199;-82
2022/04/29 02:43:34;;;;;;;5.13;4.73;;;9.20;65.20;9.20;97334.00;;;;5064815;28;20193;-82
2022/04/29 02:46:01;;;;;;;5.67;5.17;;;9.20;65.30;9.20;97330.00;;;;5060746;28;20242;-82
2022/04/29 02:48:30;;;;;;;5.83;5.23;;;9.10;65.40;9.20;97337.00;;;;5062646;28;20185;-82
2022/04/29 02:50:57;;;;;;;5.60;5.10;;;9.10;65.60;9.20;97337.00;;;;5067439;28;20192;-82
2022/04/29 02:53:24;;;;;;;6.17;4.87;;;9.10;65.70;9.20;97334.00;;;;5067875;28;20212;-82
2022/04/29 02:55:51;;;;;;;5.77;5.27;;;9.10;65.80;9.10;97332.00;;;;5057079;28;20759;-80
2022/04/29 02:58:18;;;;;;;5.73;5.17;;;9.10;65.70;9.10;97322.00;;;;5072847;28;20188;-80
2022/04/29 03:00:45;;;;;;;5.43;4.93;;;9.10;65.70;9.10;97328.00;;;;5065364;28;20206;-81
2022/04/29 03:03:12;;;;;;;5.40;4.90;;;9.00;65.70;9.10;97328.00;;;;5062174;28;20201;-80
2022/04/29 03:05:40;;;;;;;5.00;4.50;;;9.10;65.90;9.00;97316.00;;;;5065165;28;20707;-81
2022/04/29 03:08:08;;;;;;;4.87;4.47;;;9.00;65.90;9.00;97321.00;;;;5073088;28;20218;-81
2022/04/29 03:10:36;;;;;;;5.03;4.63;;;9.00;65.90;9.00;97320.00;;;;5062190;28;20203;-81
2022/04/29 03:13:03;;;;;;;4.90;4.50;;;9.00;65.80;9.00;97316.00;;;;5061239;28;20766;-81
2022/04/29 03:15:30;;;;;;;5.30;4.90;;;9.00;65.90;9.00;97313.00;;;;5070807;28;20235;-81
2022/04/29 03:20:44;;;;;;;4.23;3.93;;;9.00;66.10;8.90;97303.00;;;;5070368;28;20203;-80
2022/04/29 03:23:12;;;;;;;4.80;4.40;;;8.90;66.00;8.90;97303.00;;;;5053432;28;20674;-80
2022/04/29 03:25:41;;;;;;;4.17;3.87;;;8.90;66.10;8.90;97304.00;;;;5058734;28;20227;-80
2022/04/29 03:28:09;;;;;;;4.77;4.27;;;8.90;66.10;8.90;97301.00;;;;5056354;28;20250;-81
2022/04/29 03:30:37;;;;;;;6.20;4.53;;;8.90;66.00;8.90;97304.00;;;;5056696;28;20195;-81
2022/04/29 03:33:07;;;;;;;4.03;3.63;;;8.90;66.10;8.90;97296.00;;;;5056858;28;20231;-81
2022/04/29 03:35:40;;;;;;;4.50;4.20;;;8.90;66.10;8.80;97299.00;;;;5053796;28;20223;-81
2022/04/29 03:38:09;;;;;;;5.03;4.63;;;8.80;66.00;8.80;97304.00;;;;5054312;28;20184;-81
2022/04/29 03:40:36;;;;;;;4.50;4.20;;;8.80;65.80;8.80;97312.00;;;;5059139;28;20191;-83
2022/04/29 03:43:04;;;;;;;4.33;3.93;;;8.70;65.80;8.80;97313.00;;;;5073460;28;20210;-80
2022/04/29 03:45:31;;;;;;;4.30;4.00;;;8.70;65.80;8.70;97314.00;;;;5073280;28;20216;-81
2022/04/29 03:47:58;;;;;;;5.13;4.53;;;8.70;65.80;8.70;97312.00;;;;5073279;28;20687;-82
2022/04/29 03:50:28;;;;;;;4.77;4.23;;;8.70;65.80;8.70;97301.00;;;;5070181;28;20211;-82
2022/04/29 03:52:58;;;;;;;4.83;4.43;;;8.70;65.80;8.60;97301.00;;;;5052812;28;20231;-82
2022/04/29 03:55:29;;;;;;;4.27;3.97;;;8.60;65.90;8.60;97306.00;;;;5054842;28;20227;-82
2022/04/29 03:57:58;;;;;;;5.03;4.63;;;8.60;66.10;8.60;97306.00;;;;5060805;28;20276;-83
2022/04/29 04:00:27;;;;;;;4.37;3.97;;;8.60;66.30;8.60;97303.00;;;;5052634;28;20573;-82
2022/04/29 04:02:54;;;;;;;5.10;4.70;;;8.60;66.60;8.60;97308.00;;;;5068964;28;20192;-81
2022/04/29 04:05:23;;;;;;;5.00;4.53;;;8.60;66.70;8.60;97303.00;;;;5062352;28;20212;-81
2022/04/29 04:07:50;;;;;;;4.90;4.50;;;8.50;66.70;8.50;97299.00;;;;5052980;28;20246;-82
2022/04/29 04:10:17;;;;;;;4.60;4.20;;;8.50;66.70;8.50;97304.00;;;;5052848;28;20202;-82
2022/04/29 04:12:49;;;;;;;4.97;4.57;;;8.50;66.80;8.50;97302.00;;;;5066075;28;20196;-81
2022/04/29 04:15:18;;;;;;;5.27;4.77;;;8.50;67.00;8.50;97305.00;;;;5072720;28;20220;-82
2022/04/29 04:17:47;;;;;;;4.33;3.93;;;8.50;67.00;8.60;97314.00;;;;5058129;28;20196;-81
2022/04/29 04:20:18;;;;;;;5.50;5.00;;;8.60;67.00;8.60;97311.00;;;;5052274;28;20673;-82
2022/04/29 04:22:45;;;;;;;5.00;4.60;;;8.60;67.00;8.60;97312.00;;;;5052775;28;20184;-83
2022/04/29 04:25:14;;;;;;;5.10;4.70;;;8.60;66.80;8.60;97314.00;;;;5052753;28;20218;-82
2022/04/29 04:27:42;;;;;;;4.57;4.27;;;8.60;66.70;8.60;97311.00;;;;5065948;28;20200;-83
2022/04/29 04:30:12;;;;;;;4.77;4.33;;;8.60;67.40;8.60;97318.00;;;;5052395;28;20189;-83
2022/04/29 04:32:40;;;;;;;5.07;4.57;;;8.60;66.80;8.60;97319.00;;;;5059904;28;20201;-81
2022/04/29 04:35:08;;;;;;;4.50;4.10;;;8.60;66.80;8.60;97331.00;;;;5055542;28;20213;-80
2022/04/29 04:37:36;;;;;;;4.73;4.40;;;8.60;66.90;8.70;97338.00;;;;5054957;28;20196;-80
2022/04/29 04:40:04;;;;;;;4.53;4.23;;;8.60;66.90;8.70;97326.00;;;;5054642;28;20185;-81
2022/04/29 04:42:32;;;;;;;5.40;4.90;;;8.60;67.00;8.70;97331.00;;;;5056786;28;20200;-80
2022/04/29 04:44:59;;;;;;;5.30;4.80;;;8.50;67.00;8.80;97340.00;;;;5057774;28;20718;-80
2022/04/29 04:47:28;;;;;;;6.07;4.80;;;8.60;67.10;8.80;97336.00;;;;5056854;28;20207;-80
2022/04/29 04:49:55;;;;;;;4.70;4.33;;;8.60;67.30;8.90;97345.00;;;;5067205;28;20210;-80
2022/04/29 04:52:22;;;;;;;4.90;4.50;;;8.60;67.50;8.90;97346.00;;;;5061710;28;20250;-80
2022/04/29 04:54:49;;;;;;;5.43;4.90;;;8.60;67.60;8.90;97339.00;;;;5070608;28;20224;-79
2022/04/29 04:57:16;;;;;;;4.73;4.37;;;8.60;67.70;9.00;97352.00;;;;5073895;28;20227;-79
2022/04/29 04:59:43;;;;;;;5.33;4.47;;;8.70;68.00;9.00;97344.00;;;;5069040;28;20670;-79
2022/04/29 05:02:13;;;;;;;4.93;4.63;;;8.70;68.00;9.10;97351.00;;;;5060099;28;20192;-80
2022/04/29 05:04:42;;;;;;;4.90;4.50;;;8.80;68.10;9.10;97350.00;;;;5074508;28;20208;-80
2022/04/29 05:07:08;;;;;;;5.30;4.83;;;8.80;68.10;9.10;97347.00;;;;5074960;28;20696;-80
2022/04/29 05:09:35;;;;;;;5.10;4.60;;;8.80;68.10;9.20;97351.00;;;;5074790;28;20207;-78
2022/04/29 05:12:03;;;;;;;4.53;4.23;;;8.90;68.20;9.20;97349.00;;;;5070528;28;20197;-82
2022/04/29 05:14:30;;;;;;;5.13;4.73;;;8.90;68.40;9.30;97355.00;;;;5054937;28;20585;-79
2022/04/29 05:16:57;;;;;;;5.63;5.13;;;8.90;68.40;9.30;97353.00;;;;5054966;28;20204;-79
2022/04/29 05:19:24;;;;;;;5.60;5.03;;;9.00;68.60;9.40;97355.00;;;;5054756;28;20204;-79
2022/04/29 05:21:52;;;;;;;6.17;5.57;;;9.00;68.70;9.40;97354.00;;;;5056886;28;20192;-80
2022/04/29 05:24:19;;;;;;;5.93;5.43;;;9.10;68.80;9.50;97357.00;;;;5074672;28;20211;-78
2022/04/29 05:26:46;;;;;;;5.50;5.00;;;9.10;68.80;9.50;97355.00;;;;5074766;28;20222;-79
2022/04/29 05:29:13;;;;;;;5.43;5.03;;;9.10;68.90;9.60;97357.00;;;;5064999;28;20196;-81
2022/04/29 05:31:40;;;;;;;6.00;5.50;;;9.20;69.00;9.60;97352.00;;;;5054640;28;20203;-79
2022/04/29 05:34:07;;;;;;;5.70;5.20;;;9.20;69.10;9.70;97347.00;;;;5071485;28;20224;-80
2022/04/29 05:36:36;;;;;;;5.63;5.13;;;9.30;69.30;9.70;97345.00;;;;5074157;28;20216;-78
2022/04/29 05:44:35;;;;;;;5.57;5.13;;;9.50;69.60;9.90;97351.00;;;;5055476;28;20311;-80
2022/04/29 05:47:02;;;;;;;6.10;5.60;;;9.50;69.60;10.00;97351.00;;;;5061460;28;20184;-80
2022/04/29 05:49:29;;;;;;;5.93;5.43;;;9.60;69.90;10.10;97354.00;;;;5063896;28;20195;-81
2022/04/29 05:51:56;;;;;;;5.90;5.30;;;9.70;70.00;10.10;97362.00;;;;5053323;28;20200;-80
2022/04/29 05:54:25;;;;;;;5.50;4.93;;;9.70;70.00;10.20;97353.00;;;;5052383;28;20224;-80
2022/04/29 05:56:53;;;;;;;6.33;5.60;;;9.80;70.10;10.30;97367.00;;;;5070177;28;20215;-80
2022/04/29 05:59:20;;;;;;;6.27;5.77;;;9.90;70.20;10.30;97355.00;;;;5070296;28;20283;-80
2022/04/29 06:01:47;;;;;;;6.40;5.80;;;9.90;70.00;10.50;97356.00;;;;5052795;28;20655;-78
2022/04/29 06:04:14;;;;;;;6.80;6.20;;;10.00;70.00;10.50;97358.00;;;;5064874;28;20672;-80
2022/04/29 06:06:41;;;;;;;6.60;5.90;;;10.10;70.00;10.60;97354.00;;;;5073779;28;20595;-78
2022/04/29 06:09:08;;;;;;;6.30;5.80;;;10.20;69.90;10.70;97357.00;;;;5066957;28;20666;-80
2022/04/29 06:11:36;;;;;;;6.63;5.63;;;10.30;70.00;10.80;97355.00;;;;5053966;28;20196;-78
2022/04/29 06:14:03;;;;;;;6.87;5.97;;;10.40;70.00;10.90;97356.00;;;;5053775;28;20224;-78
2022/04/29 06:16:30;;;;;;;7.07;6.40;;;10.50;70.00;11.00;97362.00;;;;5058336;28;20213;-79
2022/04/29 06:18:57;;;;;;;6.33;5.73;;;10.60;69.80;11.10;97365.00;;;;5053547;28;20203;-78
2022/04/29 06:21:24;;;;;;;6.73;6.23;;;10.70;69.80;11.20;97361.00;;;;5053736;28;20192;-78
2022/04/29 06:23:51;;;;;;;6.50;5.90;;;10.70;69.80;11.30;97362.00;;;;5071928;28;20199;-78
2022/04/29 06:26:19;;;;;;;6.00;5.47;;;10.80;69.90;11.40;97364.00;;;;5073419;28;20219;-79
2022/04/29 06:28:47;;;;;;;6.30;5.80;;;10.90;69.90;11.60;97364.00;;;;5073773;28;20203;-78
2022/04/29 06:31:14;;;;;;;6.07;5.57;;;11.10;70.00;11.70;97362.00;;;;5073310;28;20196;-78
2022/04/29 06:33:41;;;;;;;7.10;6.50;;;11.20;70.10;11.80;97362.00;;;;5071896;28;20697;-80
2022/04/29 06:36:09;;;;;;;6.83;6.23;;;11.30;70.00;11.90;97375.00;;;;5072881;28;20216;-78
2022/04/29 06:38:36;;;;;;;6.80;6.20;;;11.40;70.00;12.10;97373.00;;;;5073384;28;20239;-79
2022/04/29 06:41:03;;;;;;;6.83;6.23;;;11.50;69.90;12.20;97378.00;;;;5059350;28;20203;-79
2022/04/29 06:43:30;;;;;;;7.33;6.73;;;11.70;69.90;12.40;97377.00;;;;5063591;28;20677;-79
2022/04/29 06:45:59;;;;;;;6.70;6.00;;;11.80;69.80;12.50;97377.00;;;;5070270;28;20220;-78
2022/04/29 06:48:27;;;;;;;6.47;5.87;;;11.90;69.60;12.70;97377.00;;;;5063299;28;20274;-78
2022/04/29 06:50:54;;;;;;;6.83;6.23;;;12.10;69.50;12.80;97383.00;;;;5069678;28;20235;-78
2022/04/29 06:53:21;;;;;;;6.90;6.30;;;12.20;69.40;13.00;97382.00;;;;5066776;28;20199;-78
2022/04/29 06:55:48;;;;;;;6.27;5.67;;;12.30;69.40;13.10;97386.00;;;;5056101;28;20319;-78
2022/04/29 06:58:15;;;;;;;6.63;5.83;;;12.50;69.40;13.30;97384.00;;;;5053067;28;20203;-78
2022/04/29 07:00:43;;;;;;;6.80;6.17;;;12.60;69.30;13.40;97386.00;;;;5052927;28;20196;-79
2022/04/29 07:03:11;;;;;;;6.97;6.37;;;12.80;69.40;13.60;97392.00;;;;5063016;28;20218;-79
2022/04/29 07:05:39;;;;;;;6.90;5.87;;;12.90;69.00;13.80;97391.00;;;;5066358;28;20220;-79
2022/04/29 07:08:07;;;;;;;6.07;5.47;;;13.10;69.70;14.00;97397.00;;;;5072399;28;20203;-78
2022/04/29 07:10:34;;;;;;;6.23;5.73;;;13.30;69.20;14.30;97399.00;;;;5059231;28;20203;-78
2022/04/29 07:13:03;;;;;;;6.27;5.67;;;13.50;69.10;14.50;97412.00;;;;5052998;28;20203;-81
2022/04/29 07:15:30;;;;;;;7.63;6.13;;;13.70;68.60;14.70;97408.00;;;;5053952;28;20646;-79
2022/04/29 07:17:57;;;;;;;5.93;5.33;;;13.90;68.30;15.00;97401.00;;;;5072424;28;20265;-78
2022/04/29 07:20:26;;;;;;;5.73;5.23;;;14.10;68.20;15.20;97405.00;;;;5072288;28;20691;-78
2022/04/29 07:22:53;;;;;;;6.23;5.67;;;14.40;67.80;15.40;97402.00;;;;5063727;28;20199;-78
2022/04/29 07:25:20;;;;;;;5.70;5.20;;;14.60;67.60;15.70;97403.00;;;;5053022;28;20725;-80
2022/04/29 07:27:48;;;;;;;5.20;4.80;;;14.80;67.50;16.00;97408.00;;;;5065616;28;20200;-78
2022/04/29 07:30:15;;;;;;;5.27;4.87;;;15.00;67.30;16.30;97408.00;;;;5065588;28;20197;-78
2022/04/29 07:32:44;;;;;;;6.93;5.43;;;15.30;67.30;16.60;97406.00;;;;5057276;28;20283;-79
2022/04/29 07:43:26;;;;;;;4.27;3.97;;;16.30;65.50;17.50;97398.00;;;;5065738;28;20235;-78
2022/04/29 07:45:54;;;;;;;5.43;5.00;;;16.50;64.80;17.60;97396.00;;;;5071845;28;20246;-78
2022/04/29 07:48:23;;;;;;;5.13;4.70;;;16.70;64.30;17.80;97397.00;;;;5058229;28;20215;-79
2022/04/29 07:50:50;;;;;;;5.10;4.70;;;16.80;63.90;18.00;97403.00;;;;5059901;28;20200;-79
2022/04/29 07:53:19;;;;;;;5.00;4.50;;;17.00;63.50;18.10;97397.00;;;;5072213;28;20207;-78
2022/04/29 07:55:46;;;;;;;4.27;3.97;;;17.20;63.30;18.30;97401.00;;;;5071690;28;20716;-78
2022/04/29 07:58:14;;;;;;;4.37;3.90;;;17.30;62.80;18.50;97395.00;;;;5071686;28;20200;-78
2022/04/29 08:00:43;;;;;;;4.43;4.13;;;17.50;62.30;18.80;97391.00;;;;5054858;28;20689;-79
2022/04/29 08:03:10;;;;;;;4.40;4.10;;;17.70;62.10;19.00;97391.00;;;;5052052;28;20566;-78
2022/04/29 08:05:37;;;;;;;4.57;4.27;;;17.90;62.00;19.30;97392.00;;;;5050241;28;20212;-79
2022/04/29 08:08:05;;;;;;;4.13;3.83;;;18.10;61.80;19.60;97387.00;;;;5051730;28;20200;-78
2022/04/29 08:10:33;;;;;;;4.07;3.67;;;18.30;61.50;20.00;97381.00;;;;5051967;28;20207;-78
2022/04/29 08:13:04;;;;;;;3.97;3.60;;;18.50;61.00;20.30;97385.00;;;;5051992;28;20197;-78
2022/04/29 08:15:33;;;;;;;4.63;3.93;;;18.70;60.70;20.70;97385.00;;;;5051231;28;20221;-80
2022/04/29 08:18:00;;;;;;;3.60;3.30;;;19.00;60.10;21.00;97387.00;;;;5052145;28;20258;-79
2022/04/29 08:20:28;;;;;;;3.60;3.30;;;19.30;59.90;21.40;97385.00;;;;5057797;28;20195;-78
2022/04/29 08:22:55;;;;;;;3.80;3.50;;;19.60;59.60;21.70;97382.00;;;;5064415;28;20195;-78
2022/04/29 08:25:22;;;;;;;5.07;3.43;;;19.80;58.90;22.10;97379.00;;;;5051626;28;20248;-79
2022/04/29 08:27:51;;;;;;;3.40;3.20;;;20.10;58.50;22.50;97389.00;;;;5057165;28;20188;-78
2022/04/29 08:30:18;;;;;;;3.33;3.10;;;20.40;57.40;22.90;97391.00;;;;5062218;28;20196;-79
2022/04/29 08:32:50;;;;;;;3.53;3.23;;;20.70;57.10;23.40;97386.00;;;;5051745;28;20200;-78
2022/04/29 08:35:18;;;;;;;4.83;3.40;;;21.00;56.60;23.90;97377.00;;;;5051575;28;20247;-79
2022/04/29 08:37:45;;;;;;;3.00;2.73;;;21.40;56.40;24.50;97390.00;;;;5051779;28;20207;-79
2022/04/29 08:40:13;;;;;;;3.17;2.97;;;21.70;55.60;25.00;97390.00;;;;5061981;28;20663;-78
2022/04/29 08:42:41;;;;;;;4.67;2.60;;;22.10;55.30;25.50;97384.00;;;;5052064;28;20189;-78
2022/04/29 08:45:13;;;;;;;3.27;2.97;;;22.50;54.50;25.90;97396.00;;;;5051446;28;20227;-79
2022/04/29 08:47:42;;;;;;;2.70;2.50;;;23.00;53.10;26.40;97384.00;;;;5052260;28;20189;-79
2022/04/29 08:50:13;;;;;;;5.00;2.47;;;23.50;53.10;26.90;97388.00;;;;5051419;28;20689;-79
2022/04/29 08:52:40;;;;;;;3.80;2.70;;;24.00;52.10;27.30;97395.00;;;;5062613;28;20185;-78
2022/04/29 09:00:44;;;;;;;2.30;2.10;;;25.60;48.00;28.60;97382.00;;;;5072393;28;20184;-80
2022/04/29 09:03:14;;;;;;;2.80;2.45;;;26.10;47.20;29.00;97390.00;;;;5071975;28;20261;-80
2022/04/29 09:05:44;;;;;;;3.08;2.40;;;26.50;45.70;29.10;97386.00;;;;5062719;28;20220;-80
2022/04/29 09:08:14;;;;;;;2.70;2.50;;;26.80;45.30;29.00;97386.00;;;;5051327;28;20197;-81
2022/04/29 09:10:50;;;;;;;2.47;2.28;;;27.00;43.00;28.80;97378.00;;;;5053179;28;20193;-80
2022/04/29 09:13:20;;;;;;;2.70;1.98;;;27.20;41.90;28.70;97388.00;;;;5061877;28;20697;-79
2022/04/29 09:15:51;;;;;;;2.55;2.25;;;27.20;41.70;28.60;97378.00;;;;5053025;28;20633;-79
2022/04/29 09:18:34;;;;;;;3.03;2.22;;;27.30;41.50;28.70;97371.00;;;;5074301;28;20187;-79
2022/04/29 09:21:05;;;;;;;2.35;2.15;;;27.50;40.90;28.90;97376.00;;;;5072458;28;20211;-81
2022/04/29 09:23:35;;;;;;;2.40;2.20;;;27.70;41.30;29.10;97374.00;;;;5054665;28;20193;-80
2022/04/29 09:26:05;;;;;;;2.22;2.13;;;28.10;41.60;29.40;97374.00;;;;5054877;28;20227;-80
2022/04/29 09:28:34;;;;;;;2.10;1.80;;;28.40;40.30;29.50;97379.00;;;;5054726;28;20719;-79
2022/04/29 09:31:03;;;;;;;2.30;2.10;;;28.70;39.70;29.70;97374.00;;;;5054834;28;20726;-81
2022/04/29 09:33:35;;;;;;;2.47;2.28;;;29.00;38.80;29.80;97376.00;;;;5054904;28;20214;-80
2022/04/29 09:36:02;;;;;;;2.00;1.90;;;29.30;38.20;29.90;97370.00;;;;5054538;28;20264;-80
2022/04/29 09:41:24;;;;;;;1.90;1.80;;;29.80;38.20;30.20;97381.00;;;;5073500;28;20188;-79
2022/04/29 09:43:51;;;;;;;2.47;2.28;;;30.20;37.00;30.40;97378.00;;;;5059514;28;20184;-80
2022/04/29 09:46:22;;;;;;;3.67;2.30;;;30.40;37.40;30.60;97376.00;;;;5064143;28;20222;-80
2022/04/29 09:49:04;;;;;;;2.53;1.90;;;30.70;36.40;30.70;97370.00;;;;5052082;28;20219;-80
2022/04/29 09:51:46;;;;;;;2.35;2.15;;;31.00;36.40;30.80;97370.00;;;;5053075;28;20271;-80
2022/04/29 09:54:22;;;;;;;3.70;2.78;;;31.30;35.50;31.00;97370.00;;;;5054075;28;20207;-80
2022/04/29 09:57:12;;;;;;;2.50;2.30;;;31.50;35.30;31.10;97370.00;;;;5053189;28;20227;-80
2022/04/29 09:59:41;;;;;;;2.30;2.10;;;31.70;35.50;31.20;97365.00;;;;5054233;28;20689;-80
2022/04/29 10:02:13;;;;;;;1.80;1.70;;;31.90;35.30;31.20;97369.00;;;;5054734;28;20219;-80
2022/04/29 10:04:43;;;;;;;3.10;2.10;;;32.00;34.00;31.20;97367.00;;;;5072975;28;20214;-78
2022/04/29 10:07:14;;;;;;;2.42;2.00;;;32.20;34.30;31.20;97357.00;;;;5056492;28;20204;-78
2022/04/29 10:09:45;;;;;;;2.65;2.45;;;32.20;33.90;31.20;97354.00;;;;5074077;28;20207;-78
2022/04/29 10:12:17;;;;;;;3.50;2.28;;;32.30;32.30;31.10;97354.00;;;;5068954;28;20181;-78
2022/04/29 10:14:47;;;;;;;2.10;2.00;;;32.20;32.20;31.00;97355.00;;;;5053674;28;20212;-78
2022/04/29 10:22:53;;;;;;;1.92;1.83;;;32.10;32.50;30.80;97354.00;;;;5053759;28;20188;-78
2022/04/29 10:25:22;;;;;;;2.65;2.30;;;32.00;32.70;30.70;97348.00;;;;5053854;28;20221;-78
2022/04/29 10:27:51;;;;;;;3.10;2.45;;;31.90;31.50;30.60;97349.00;;;;5068258;28;20208;-79
2022/04/29 10:30:27;;;;;;;2.25;2.05;;;31.80;30.60;30.40;97349.00;;;;5063123;28;20671;-79
2022/04/29 10:33:04;;;;;;;2.38;2.17;;;31.70;30.90;30.30;97345.00;;;;5057371;28;20188;-78
2022/04/29 10:35:53;;;;;;;2.22;2.00;;;31.50;31.60;30.10;97341.00;;;;5053228;28;20593;-79
2022/04/29 10:38:27;;;;;;;2.38;2.20;;;31.40;32.10;30.10;97343.00;;;;5075314;28;20570;-79
2022/04/29 10:41:14;;;;;;;2.45;2.35;;;31.30;32.10;30.00;97343.00;;;;5072936;28;20283;-79
2022/04/29 10:43:46;;;;;;;4.72;2.58;;;31.10;32.40;29.90;97328.00;;;;5064277;28;20199;-81
2022/04/29 10:46:21;;;;;;;2.42;2.25;;;31.00;32.20;29.80;97330.00;;;;5067030;28;20311;-79
2022/04/29 10:48:52;;;;;;;2.42;2.22;;;30.80;32.50;29.70;97329.00;;;;5061701;28;20188;-81
2022/04/29 10:51:22;;;;;;;3.05;2.33;;;30.60;32.20;29.50;97330.00;;;;5066806;28;20307;-80
2022/04/29 10:53:52;;;;;;;2.25;2.05;;;30.30;32.30;29.40;97327.00;;;;5068038;28;20250;-79
2022/04/29 10:56:37;;;;;;;2.60;2.47;;;30.00;32.50;29.20;97323.00;;;;5075402;28;20227;-80
2022/04/29 10:59:22;;;;;;;2.25;2.15;;;29.70;31.80;29.10;97321.00;;;;5074459;28;20208;-81
2022/04/29 11:01:52;;;;;;;2.85;2.65;;;29.40;32.40;28.80;97318.00;;;;5074767;28;20203;-79
2022/04/29 11:04:45;;;;;;;2.90;2.38;;;29.10;32.60;28.60;97311.00;;;;5059741;28;20203;-80
2022/04/29 11:07:43;;;;;;;2.50;2.40;;;28.80;31.40;28.20;97305.00;;;;5054191;28;20199;-80
2022/04/29 11:10:17;;;;;;;2.50;2.10;;;28.30;32.40;27.90;97300.00;;;;5081330;28;20231;-81
2022/04/29 11:12:57;;;;;;;2.20;2.00;;;27.90;33.30;27.60;97298.00;;;;5094410;28;20188;-81
2022/04/29 11:15:40;;;;;;;2.57;2.37;;;27.60;33.60;27.30;97289.00;;;;5093887;28;20714;-80
2022/04/29 11:18:23;;;;;;;2.50;2.30;;;27.30;33.60;27.10;97280.00;;;;5094773;28;20179;-81
2022/04/29 11:20:56;;;;;;;3.40;2.50;;;26.90;33.40;26.90;97279.00;;;;5090488;28;20188;-81
2022/04/29 11:26:14;;;;;;;1.97;1.87;;;26.40;34.60;26.50;97275.00;;;;5071253;28;20227;-79
2022/04/29 11:28:42;;;;;;;3.03;2.40;;;26.20;35.00;26.30;97273.00;;;;5074335;28;20666;-80
2022/04/29 11:31:11;;;;;;;2.53;2.30;;;26.00;35.20;26.20;97265.00;;;;5071755;28;20278;-80
2022/04/29 11:33:40;;;;;;;2.83;2.37;;;25.80;35.40;26.00;97268.00;;;;5072873;28;20199;-80
2022/04/29 11:36:12;;;;;;;2.50;2.30;;;25.60;35.40;26.00;97270.00;;;;5070198;28;20224;-79
2022/04/29 11:38:44;;;;;;;2.57;2.30;;;25.50;35.30;25.90;97256.00;;;;5070885;28;20375;-80
2022/04/29 11:41:19;;;;;;;2.60;2.40;;;25.40;35.80;25.90;97259.00;;;;5053597;28;20196;-80